sensor_id;sensor_type;location;lat;lon;timestamp;P1;durP1;ratioP1;P2;durP2;ratioP2
31224;SDS011;17847;31.524;74.366;2023-04-23T00:00:26;8.88;;;3.25;;
31224;SDS011;17847;31.524;74.366;2023-04-23T00:02:58;9.50;;;2.80;;
31224;SDS011;17847;31.524;74.366;2023-04-23T00:05:31;5.50;;;2.50;;
31224;SDS011;17847;31.524;74.366;2023-04-23T00:08:02;7.55;;;3.25;;
31224;SDS011;17847;31.524;74.366;2023-04-23T00:10:32;7.85;;;2.72;;
31224;SDS011;17847;31.524;74.366;2023-04-23T00:13:02;6.22;;;2.60;;
31224;SDS011;17847;31.524;74.366;2023-04-23T00:15:32;6.90;;;3.10;;
31224;SDS011;17847;31.524;74.366;2023-04-23T00:18:01;7.25;;;3.20;;
31224;SDS011;17847;31.524;74.366;2023-04-23T00:20:31;5.68;;;3.40;;
31224;SDS011;17847;31.524;74.366;2023-04-23T00:23:01;6.63;;;3.65;;
31224;SDS011;17847;31.524;74.366;2023-04-23T00:25:31;8.68;;;3.60;;
31224;SDS011;17847;31.524;74.366;2023-04-23T00:28:00;7.05;;;3.80;;
31224;SDS011;17847;31.524;74.366;2023-04-23T00:30:29;7.35;;;3.80;;
31224;SDS011;17847;31.524;74.366;2023-04-23T00:32:59;11.00;;;4.57;;
31224;SDS011;17847;31.524;74.366;2023-04-23T00:35:28;10.15;;;4.18;;
31224;SDS011;17847;31.524;74.366;2023-04-23T00:37:57;7.60;;;4.43;;
31224;SDS011;17847;31.524;74.366;2023-04-23T00:40:27;10.73;;;5.22;;
31224;SDS011;17847;31.524;74.366;2023-04-23T00:42:56;9.98;;;4.25;;
31224;SDS011;17847;31.524;74.366;2023-04-23T00:45:27;7.88;;;5.07;;
31224;SDS011;17847;31.524;74.366;2023-04-23T00:47:57;11.07;;;4.97;;
31224;SDS011;17847;31.524;74.366;2023-04-23T00:50:26;9.63;;;4.88;;
31224;SDS011;17847;31.524;74.366;2023-04-23T00:52:55;10.25;;;5.25;;
31224;SDS011;17847;31.524;74.366;2023-04-23T00:55:25;11.77;;;5.55;;
31224;SDS011;17847;31.524;74.366;2023-04-23T00:57:56;7.55;;;4.85;;
31224;SDS011;17847;31.524;74.366;2023-04-23T01:00:25;9.75;;;5.30;;
31224;SDS011;17847;31.524;74.366;2023-04-23T01:02:55;13.95;;;6.47;;
31224;SDS011;17847;31.524;74.366;2023-04-23T01:05:25;14.50;;;5.60;;
31224;SDS011;17847;31.524;74.366;2023-04-23T01:07:56;9.82;;;5.30;;
31224;SDS011;17847;31.524;74.366;2023-04-23T01:10:25;8.98;;;5.60;;
31224;SDS011;17847;31.524;74.366;2023-04-23T01:12:55;10.73;;;6.15;;
31224;SDS011;17847;31.524;74.366;2023-04-23T01:15:24;13.15;;;5.88;;
31224;SDS011;17847;31.524;74.366;2023-04-23T01:18:52;14.38;;;6.03;;
31224;SDS011;17847;31.524;74.366;2023-04-23T01:21:22;10.48;;;5.40;;
31224;SDS011;17847;31.524;74.366;2023-04-23T01:23:52;9.45;;;5.68;;
31224;SDS011;17847;31.524;74.366;2023-04-23T01:26:22;12.55;;;5.28;;
31224;SDS011;17847;31.524;74.366;2023-04-23T01:28:52;11.45;;;5.50;;
31224;SDS011;17847;31.524;74.366;2023-04-23T01:31:22;7.95;;;4.60;;
31224;SDS011;17847;31.524;74.366;2023-04-23T01:33:52;10.93;;;5.05;;
31224;SDS011;17847;31.524;74.366;2023-04-23T01:36:23;10.68;;;5.50;;
31224;SDS011;17847;31.524;74.366;2023-04-23T01:38:52;11.60;;;4.43;;
31224;SDS011;17847;31.524;74.366;2023-04-23T01:41:53;8.50;;;4.25;;
31224;SDS011;17847;31.524;74.366;2023-04-23T01:44:24;9.98;;;3.97;;
31224;SDS011;17847;31.524;74.366;2023-04-23T01:46:54;7.25;;;3.78;;
31224;SDS011;17847;31.524;74.366;2023-04-23T01:49:25;6.70;;;3.58;;
31224;SDS011;17847;31.524;74.366;2023-04-23T01:51:55;11.88;;;4.13;;
31224;SDS011;17847;31.524;74.366;2023-04-23T01:54:24;7.53;;;3.63;;
31224;SDS011;17847;31.524;74.366;2023-04-23T01:57:28;7.35;;;3.92;;
31224;SDS011;17847;31.524;74.366;2023-04-23T02:00:06;6.20;;;3.42;;
31224;SDS011;17847;31.524;74.366;2023-04-23T02:02:41;8.88;;;3.42;;
31224;SDS011;17847;31.524;74.366;2023-04-23T02:05:13;10.57;;;3.92;;
31224;SDS011;17847;31.524;74.366;2023-04-23T02:07:44;7.78;;;3.00;;
31224;SDS011;17847;31.524;74.366;2023-04-23T02:10:14;6.78;;;3.08;;
31224;SDS011;17847;31.524;74.366;2023-04-23T02:12:44;8.77;;;2.80;;
31224;SDS011;17847;31.524;74.366;2023-04-23T02:15:14;8.13;;;2.50;;
31224;SDS011;17847;31.524;74.366;2023-04-23T02:17:44;5.60;;;2.42;;
31224;SDS011;17847;31.524;74.366;2023-04-23T02:20:14;5.28;;;2.50;;
31224;SDS011;17847;31.524;74.366;2023-04-23T02:22:43;10.82;;;2.60;;
31224;SDS011;17847;31.524;74.366;2023-04-23T02:25:14;5.03;;;2.10;;
31224;SDS011;17847;31.524;74.366;2023-04-23T02:27:45;7.32;;;2.45;;
31224;SDS011;17847;31.524;74.366;2023-04-23T02:30:14;5.20;;;2.42;;
31224;SDS011;17847;31.524;74.366;2023-04-23T02:32:44;4.95;;;2.13;;
31224;SDS011;17847;31.524;74.366;2023-04-23T02:35:13;4.57;;;2.20;;
31224;SDS011;17847;31.524;74.366;2023-04-23T02:37:43;4.75;;;2.08;;
31224;SDS011;17847;31.524;74.366;2023-04-23T02:40:12;4.68;;;2.13;;
31224;SDS011;17847;31.524;74.366;2023-04-23T02:42:42;5.07;;;2.60;;
31224;SDS011;17847;31.524;74.366;2023-04-23T02:45:18;6.35;;;2.17;;
31224;SDS011;17847;31.524;74.366;2023-04-23T02:47:49;4.57;;;2.30;;
31224;SDS011;17847;31.524;74.366;2023-04-23T02:50:20;6.30;;;2.40;;
31224;SDS011;17847;31.524;74.366;2023-04-23T02:52:50;7.25;;;2.42;;
31224;SDS011;17847;31.524;74.366;2023-04-23T02:55:19;6.00;;;2.40;;
31224;SDS011;17847;31.524;74.366;2023-04-23T02:57:49;5.40;;;2.28;;
31224;SDS011;17847;31.524;74.366;2023-04-23T03:00:19;6.03;;;2.30;;
31224;SDS011;17847;31.524;74.366;2023-04-23T03:02:48;4.13;;;2.13;;
31224;SDS011;17847;31.524;74.366;2023-04-23T03:05:19;6.78;;;2.10;;
31224;SDS011;17847;31.524;74.366;2023-04-23T03:07:48;5.75;;;2.13;;
31224;SDS011;17847;31.524;74.366;2023-04-23T03:10:17;4.70;;;2.20;;
31224;SDS011;17847;31.524;74.366;2023-04-23T03:12:47;5.03;;;2.40;;
31224;SDS011;17847;31.524;74.366;2023-04-23T03:15:17;5.07;;;2.22;;
31224;SDS011;17847;31.524;74.366;2023-04-23T03:17:47;4.90;;;2.33;;
31224;SDS011;17847;31.524;74.366;2023-04-23T03:20:19;5.20;;;2.38;;
31224;SDS011;17847;31.524;74.366;2023-04-23T03:22:49;5.22;;;2.67;;
31224;SDS011;17847;31.524;74.366;2023-04-23T03:25:18;7.28;;;2.50;;
31224;SDS011;17847;31.524;74.366;2023-04-23T03:27:49;6.03;;;2.15;;
31224;SDS011;17847;31.524;74.366;2023-04-23T03:30:51;5.78;;;1.98;;
31224;SDS011;17847;31.524;74.366;2023-04-23T03:33:20;6.55;;;2.20;;
31224;SDS011;17847;31.524;74.366;2023-04-23T03:35:50;7.22;;;2.05;;
31224;SDS011;17847;31.524;74.366;2023-04-23T03:38:26;5.28;;;2.58;;
31224;SDS011;17847;31.524;74.366;2023-04-23T03:40:56;10.45;;;2.58;;
31224;SDS011;17847;31.524;74.366;2023-04-23T03:43:27;6.13;;;3.10;;
31224;SDS011;17847;31.524;74.366;2023-04-23T03:46:14;6.35;;;2.42;;
31224;SDS011;17847;31.524;74.366;2023-04-23T03:48:44;5.88;;;2.42;;
31224;SDS011;17847;31.524;74.366;2023-04-23T03:51:23;8.52;;;2.70;;
31224;SDS011;17847;31.524;74.366;2023-04-23T03:53:53;10.93;;;2.63;;
31224;SDS011;17847;31.524;74.366;2023-04-23T03:56:34;7.18;;;2.90;;
31224;SDS011;17847;31.524;74.366;2023-04-23T03:59:35;9.60;;;2.60;;
31224;SDS011;17847;31.524;74.366;2023-04-23T04:02:05;9.55;;;3.05;;
31224;SDS011;17847;31.524;74.366;2023-04-23T04:04:34;5.97;;;2.40;;
31224;SDS011;17847;31.524;74.366;2023-04-23T04:07:04;8.30;;;2.85;;
31224;SDS011;17847;31.524;74.366;2023-04-23T04:09:35;4.82;;;2.80;;
31224;SDS011;17847;31.524;74.366;2023-04-23T04:12:04;5.22;;;2.30;;
31224;SDS011;17847;31.524;74.366;2023-04-23T04:14:34;3.35;;;2.10;;
31224;SDS011;17847;31.524;74.366;2023-04-23T04:17:03;5.03;;;2.25;;
31224;SDS011;17847;31.524;74.366;2023-04-23T04:19:32;7.68;;;2.45;;
31224;SDS011;17847;31.524;74.366;2023-04-23T04:22:03;5.63;;;1.90;;
31224;SDS011;17847;31.524;74.366;2023-04-23T04:24:32;8.73;;;2.08;;
31224;SDS011;17847;31.524;74.366;2023-04-23T04:27:02;6.65;;;2.20;;
31224;SDS011;17847;31.524;74.366;2023-04-23T04:29:39;4.82;;;2.00;;
31224;SDS011;17847;31.524;74.366;2023-04-23T04:32:09;3.20;;;2.10;;
31224;SDS011;17847;31.524;74.366;2023-04-23T04:34:38;9.68;;;1.73;;
31224;SDS011;17847;31.524;74.366;2023-04-23T04:37:08;7.13;;;2.13;;
31224;SDS011;17847;31.524;74.366;2023-04-23T04:39:38;6.95;;;1.95;;
31224;SDS011;17847;31.524;74.366;2023-04-23T04:42:13;7.68;;;2.28;;
31224;SDS011;17847;31.524;74.366;2023-04-23T04:44:43;4.97;;;1.42;;
31224;SDS011;17847;31.524;74.366;2023-04-23T04:47:12;4.82;;;1.80;;
31224;SDS011;17847;31.524;74.366;2023-04-23T04:49:44;4.88;;;2.13;;
31224;SDS011;17847;31.524;74.366;2023-04-23T04:52:13;3.72;;;1.58;;
31224;SDS011;17847;31.524;74.366;2023-04-23T04:54:43;4.32;;;1.70;;
31224;SDS011;17847;31.524;74.366;2023-04-23T04:57:12;4.10;;;1.48;;
31224;SDS011;17847;31.524;74.366;2023-04-23T04:59:41;4.47;;;1.58;;
31224;SDS011;17847;31.524;74.366;2023-04-23T05:02:10;11.75;;;2.20;;
31224;SDS011;17847;31.524;74.366;2023-04-23T05:04:40;9.27;;;1.90;;
31224;SDS011;17847;31.524;74.366;2023-04-23T05:07:10;3.80;;;1.67;;
31224;SDS011;17847;31.524;74.366;2023-04-23T05:09:39;4.05;;;1.75;;
31224;SDS011;17847;31.524;74.366;2023-04-23T05:12:11;3.08;;;1.60;;
31224;SDS011;17847;31.524;74.366;2023-04-23T05:14:41;8.77;;;1.80;;
31224;SDS011;17847;31.524;74.366;2023-04-23T05:17:36;4.43;;;1.90;;
31224;SDS011;17847;31.524;74.366;2023-04-23T05:20:07;3.97;;;1.80;;
31224;SDS011;17847;31.524;74.366;2023-04-23T05:22:40;7.47;;;1.88;;
31224;SDS011;17847;31.524;74.366;2023-04-23T05:25:11;3.20;;;1.63;;
31224;SDS011;17847;31.524;74.366;2023-04-23T05:27:41;5.03;;;1.60;;
31224;SDS011;17847;31.524;74.366;2023-04-23T05:30:11;5.25;;;1.70;;
31224;SDS011;17847;31.524;74.366;2023-04-23T05:32:40;4.88;;;2.22;;
31224;SDS011;17847;31.524;74.366;2023-04-23T05:35:10;4.88;;;2.30;;
31224;SDS011;17847;31.524;74.366;2023-04-23T05:38:06;4.15;;;2.10;;
31224;SDS011;17847;31.524;74.366;2023-04-23T05:40:36;4.68;;;1.90;;
31224;SDS011;17847;31.524;74.366;2023-04-23T05:43:06;4.28;;;1.80;;
31224;SDS011;17847;31.524;74.366;2023-04-23T05:45:35;5.68;;;2.00;;
31224;SDS011;17847;31.524;74.366;2023-04-23T05:48:05;4.45;;;2.00;;
31224;SDS011;17847;31.524;74.366;2023-04-23T05:50:34;4.38;;;1.80;;
31224;SDS011;17847;31.524;74.366;2023-04-23T05:53:03;5.95;;;2.00;;
31224;SDS011;17847;31.524;74.366;2023-04-23T05:55:32;5.57;;;1.80;;
31224;SDS011;17847;31.524;74.366;2023-04-23T05:58:04;7.93;;;2.00;;
31224;SDS011;17847;31.524;74.366;2023-04-23T06:00:34;5.25;;;1.55;;
31224;SDS011;17847;31.524;74.366;2023-04-23T06:03:04;5.43;;;1.60;;
31224;SDS011;17847;31.524;74.366;2023-04-23T06:05:34;7.60;;;1.85;;
31224;SDS011;17847;31.524;74.366;2023-04-23T06:08:05;6.53;;;2.30;;
31224;SDS011;17847;31.524;74.366;2023-04-23T06:11:01;2.97;;;1.40;;
31224;SDS011;17847;31.524;74.366;2023-04-23T06:14:08;4.57;;;1.80;;
31224;SDS011;17847;31.524;74.366;2023-04-23T06:16:45;8.00;;;1.92;;
31224;SDS011;17847;31.524;74.366;2023-04-23T06:19:16;8.38;;;2.10;;
31224;SDS011;17847;31.524;74.366;2023-04-23T06:28:47;3.53;;;1.80;;
31224;SDS011;17847;31.524;74.366;2023-04-23T06:31:35;8.55;;;1.75;;
31224;SDS011;17847;31.524;74.366;2023-04-23T06:34:04;3.60;;;1.90;;
31224;SDS011;17847;31.524;74.366;2023-04-23T06:36:34;7.13;;;2.10;;
31224;SDS011;17847;31.524;74.366;2023-04-23T06:39:03;4.00;;;1.92;;
31224;SDS011;17847;31.524;74.366;2023-04-23T06:41:32;4.20;;;1.95;;
31224;SDS011;17847;31.524;74.366;2023-04-23T06:44:11;6.97;;;2.30;;
31224;SDS011;17847;31.524;74.366;2023-04-23T06:46:50;4.88;;;1.50;;
31224;SDS011;17847;31.524;74.366;2023-04-23T06:49:20;11.15;;;1.92;;
31224;SDS011;17847;31.524;74.366;2023-04-23T06:51:49;7.55;;;2.13;;
31224;SDS011;17847;31.524;74.366;2023-04-23T06:54:18;3.45;;;1.50;;
31224;SDS011;17847;31.524;74.366;2023-04-23T06:56:48;10.30;;;1.77;;
31224;SDS011;17847;31.524;74.366;2023-04-23T06:59:18;6.22;;;1.45;;
31224;SDS011;17847;31.524;74.366;2023-04-23T07:01:51;3.42;;;1.40;;
31224;SDS011;17847;31.524;74.366;2023-04-23T07:04:20;9.60;;;1.73;;
31224;SDS011;17847;31.524;74.366;2023-04-23T07:06:49;6.32;;;1.63;;
31224;SDS011;17847;31.524;74.366;2023-04-23T07:09:19;4.03;;;1.65;;
31224;SDS011;17847;31.524;74.366;2023-04-23T07:11:48;5.65;;;2.00;;
31224;SDS011;17847;31.524;74.366;2023-04-23T07:14:18;2.78;;;1.45;;
31224;SDS011;17847;31.524;74.366;2023-04-23T07:16:47;3.80;;;1.60;;
31224;SDS011;17847;31.524;74.366;2023-04-23T07:19:16;4.78;;;2.15;;
31224;SDS011;17847;31.524;74.366;2023-04-23T07:21:45;10.23;;;2.10;;
31224;SDS011;17847;31.524;74.366;2023-04-23T07:24:15;7.05;;;1.70;;
31224;SDS011;17847;31.524;74.366;2023-04-23T07:26:44;6.30;;;2.30;;
31224;SDS011;17847;31.524;74.366;2023-04-23T07:29:14;18.25;;;2.40;;
31224;SDS011;17847;31.524;74.366;2023-04-23T07:31:44;6.60;;;1.67;;
31224;SDS011;17847;31.524;74.366;2023-04-23T07:34:14;5.68;;;1.55;;
31224;SDS011;17847;31.524;74.366;2023-04-23T07:36:44;4.50;;;1.50;;
31224;SDS011;17847;31.524;74.366;2023-04-23T07:39:13;4.97;;;1.70;;
31224;SDS011;17847;31.524;74.366;2023-04-23T07:41:43;10.70;;;2.17;;
31224;SDS011;17847;31.524;74.366;2023-04-23T07:44:12;3.25;;;1.85;;
31224;SDS011;17847;31.524;74.366;2023-04-23T07:46:43;2.50;;;1.25;;
31224;SDS011;17847;31.524;74.366;2023-04-23T07:49:12;5.82;;;2.35;;
31224;SDS011;17847;31.524;74.366;2023-04-23T07:51:42;5.93;;;1.70;;
31224;SDS011;17847;31.524;74.366;2023-04-23T07:54:11;18.92;;;2.50;;
31224;SDS011;17847;31.524;74.366;2023-04-23T07:56:40;7.82;;;2.20;;
31224;SDS011;17847;31.524;74.366;2023-04-23T07:59:10;9.18;;;3.00;;
31224;SDS011;17847;31.524;74.366;2023-04-23T08:01:39;5.60;;;1.50;;
31224;SDS011;17847;31.524;74.366;2023-04-23T08:04:10;5.78;;;1.75;;
31224;SDS011;17847;31.524;74.366;2023-04-23T08:06:41;5.63;;;2.30;;
31224;SDS011;17847;31.524;74.366;2023-04-23T08:09:10;3.15;;;1.60;;
31224;SDS011;17847;31.524;74.366;2023-04-23T08:11:39;8.05;;;1.63;;
31224;SDS011;17847;31.524;74.366;2023-04-23T08:14:09;3.95;;;1.90;;
31224;SDS011;17847;31.524;74.366;2023-04-23T08:16:38;5.57;;;1.88;;
31224;SDS011;17847;31.524;74.366;2023-04-23T08:19:08;5.78;;;2.13;;
31224;SDS011;17847;31.524;74.366;2023-04-23T08:21:38;3.35;;;2.55;;
31224;SDS011;17847;31.524;74.366;2023-04-23T08:24:07;5.85;;;2.10;;
31224;SDS011;17847;31.524;74.366;2023-04-23T08:26:36;6.72;;;1.95;;
31224;SDS011;17847;31.524;74.366;2023-04-23T08:29:06;3.83;;;1.80;;
31224;SDS011;17847;31.524;74.366;2023-04-23T08:31:37;4.25;;;1.90;;
31224;SDS011;17847;31.524;74.366;2023-04-23T08:34:07;2.45;;;1.75;;
31224;SDS011;17847;31.524;74.366;2023-04-23T08:36:36;3.88;;;1.52;;
31224;SDS011;17847;31.524;74.366;2023-04-23T08:39:05;3.78;;;2.22;;
31224;SDS011;17847;31.524;74.366;2023-04-23T08:41:38;8.15;;;1.73;;
31224;SDS011;17847;31.524;74.366;2023-04-23T08:46:45;5.95;;;1.90;;
31224;SDS011;17847;31.524;74.366;2023-04-23T08:49:16;3.42;;;1.60;;
31224;SDS011;17847;31.524;74.366;2023-04-23T08:51:52;6.05;;;1.85;;
31224;SDS011;17847;31.524;74.366;2023-04-23T08:54:25;3.20;;;1.58;;
31224;SDS011;17847;31.524;74.366;2023-04-23T08:56:55;1.55;;;1.20;;
31224;SDS011;17847;31.524;74.366;2023-04-23T08:59:28;2.35;;;1.35;;
31224;SDS011;17847;31.524;74.366;2023-04-23T09:02:01;6.43;;;1.27;;
31224;SDS011;17847;31.524;74.366;2023-04-23T09:04:37;3.55;;;1.40;;
31224;SDS011;17847;31.524;74.366;2023-04-23T09:07:06;5.28;;;1.80;;
31224;SDS011;17847;31.524;74.366;2023-04-23T09:09:38;2.67;;;1.60;;
31224;SDS011;17847;31.524;74.366;2023-04-23T09:12:09;8.55;;;1.52;;
31224;SDS011;17847;31.524;74.366;2023-04-23T09:14:38;5.15;;;1.60;;
31224;SDS011;17847;31.524;74.366;2023-04-23T09:17:08;2.72;;;1.30;;
31224;SDS011;17847;31.524;74.366;2023-04-23T09:19:38;9.25;;;1.85;;
31224;SDS011;17847;31.524;74.366;2023-04-23T09:22:09;3.20;;;1.50;;
31224;SDS011;17847;31.524;74.366;2023-04-23T09:24:41;4.78;;;1.40;;
31224;SDS011;17847;31.524;74.366;2023-04-23T09:27:11;4.80;;;1.55;;
31224;SDS011;17847;31.524;74.366;2023-04-23T09:29:40;4.40;;;1.58;;
31224;SDS011;17847;31.524;74.366;2023-04-23T09:32:12;4.25;;;1.30;;
31224;SDS011;17847;31.524;74.366;2023-04-23T09:34:42;3.67;;;1.60;;
31224;SDS011;17847;31.524;74.366;2023-04-23T09:37:12;5.45;;;1.23;;
31224;SDS011;17847;31.524;74.366;2023-04-23T09:39:46;3.97;;;1.35;;
31224;SDS011;17847;31.524;74.366;2023-04-23T09:42:15;8.63;;;1.42;;
31224;SDS011;17847;31.524;74.366;2023-04-23T09:44:44;3.90;;;1.40;;
31224;SDS011;17847;31.524;74.366;2023-04-23T09:47:25;4.40;;;1.30;;
31224;SDS011;17847;31.524;74.366;2023-04-23T09:49:54;4.55;;;1.50;;
31224;SDS011;17847;31.524;74.366;2023-04-23T09:52:24;4.57;;;1.27;;
31224;SDS011;17847;31.524;74.366;2023-04-23T09:54:57;9.68;;;1.77;;
31224;SDS011;17847;31.524;74.366;2023-04-23T09:57:27;3.25;;;1.42;;
31224;SDS011;17847;31.524;74.366;2023-04-23T09:59:56;4.38;;;1.40;;
31224;SDS011;17847;31.524;74.366;2023-04-23T10:02:42;6.47;;;1.58;;
31224;SDS011;17847;31.524;74.366;2023-04-23T10:05:17;2.47;;;1.33;;
31224;SDS011;17847;31.524;74.366;2023-04-23T10:07:54;5.32;;;1.38;;
31224;SDS011;17847;31.524;74.366;2023-04-23T10:10:27;3.65;;;1.63;;
31224;SDS011;17847;31.524;74.366;2023-04-23T10:12:57;4.90;;;1.70;;
31224;SDS011;17847;31.524;74.366;2023-04-23T10:15:28;6.75;;;1.77;;
31224;SDS011;17847;31.524;74.366;2023-04-23T10:17:57;4.13;;;1.42;;
31224;SDS011;17847;31.524;74.366;2023-04-23T10:20:28;1.75;;;1.27;;
31224;SDS011;17847;31.524;74.366;2023-04-23T10:22:58;6.97;;;1.60;;
31224;SDS011;17847;31.524;74.366;2023-04-23T10:25:29;5.25;;;1.60;;
31224;SDS011;17847;31.524;74.366;2023-04-23T10:28:00;5.15;;;1.45;;
31224;SDS011;17847;31.524;74.366;2023-04-23T10:30:32;5.88;;;1.30;;
31224;SDS011;17847;31.524;74.366;2023-04-23T10:33:02;7.57;;;1.70;;
31224;SDS011;17847;31.524;74.366;2023-04-23T10:35:45;2.55;;;1.40;;
31224;SDS011;17847;31.524;74.366;2023-04-23T10:38:16;5.07;;;1.50;;
31224;SDS011;17847;31.524;74.366;2023-04-23T10:40:46;3.83;;;1.23;;
31224;SDS011;17847;31.524;74.366;2023-04-23T10:43:18;3.58;;;1.20;;
31224;SDS011;17847;31.524;74.366;2023-04-23T10:45:48;2.92;;;1.40;;
31224;SDS011;17847;31.524;74.366;2023-04-23T10:48:19;6.57;;;1.48;;
31224;SDS011;17847;31.524;74.366;2023-04-23T10:50:55;2.33;;;1.30;;
31224;SDS011;17847;31.524;74.366;2023-04-23T10:53:48;6.03;;;1.70;;
31224;SDS011;17847;31.524;74.366;2023-04-23T10:56:20;7.20;;;1.75;;
31224;SDS011;17847;31.524;74.366;2023-04-23T10:58:49;8.15;;;1.55;;
31224;SDS011;17847;31.524;74.366;2023-04-23T11:01:19;4.40;;;1.70;;
31224;SDS011;17847;31.524;74.366;2023-04-23T11:04:55;3.10;;;1.20;;
31224;SDS011;17847;31.524;74.366;2023-04-23T11:07:29;9.10;;;1.52;;
31224;SDS011;17847;31.524;74.366;2023-04-23T11:10:10;6.47;;;1.55;;
31224;SDS011;17847;31.524;74.366;2023-04-23T11:12:42;4.95;;;1.48;;
31224;SDS011;17847;31.524;74.366;2023-04-23T11:15:13;10.52;;;2.67;;
31224;SDS011;17847;31.524;74.366;2023-04-23T11:20:19;6.18;;;1.60;;
31224;SDS011;17847;31.524;74.366;2023-04-23T11:22:52;4.40;;;1.77;;
31224;SDS011;17847;31.524;74.366;2023-04-23T11:25:25;6.57;;;1.58;;
31224;SDS011;17847;31.524;74.366;2023-04-23T11:27:55;6.90;;;1.45;;
31224;SDS011;17847;31.524;74.366;2023-04-23T11:30:28;4.85;;;1.65;;
31224;SDS011;17847;31.524;74.366;2023-04-23T11:32:58;6.40;;;1.60;;
31224;SDS011;17847;31.524;74.366;2023-04-23T11:35:29;14.10;;;1.75;;
31224;SDS011;17847;31.524;74.366;2023-04-23T11:38:07;6.32;;;1.40;;
31224;SDS011;17847;31.524;74.366;2023-04-23T11:41:09;7.55;;;1.52;;
31224;SDS011;17847;31.524;74.366;2023-04-23T11:43:40;5.75;;;1.92;;
31224;SDS011;17847;31.524;74.366;2023-04-23T11:46:13;5.63;;;1.90;;
31224;SDS011;17847;31.524;74.366;2023-04-23T11:48:43;5.60;;;1.45;;
31224;SDS011;17847;31.524;74.366;2023-04-23T11:51:12;5.25;;;1.67;;
31224;SDS011;17847;31.524;74.366;2023-04-23T11:53:46;5.30;;;1.83;;
31224;SDS011;17847;31.524;74.366;2023-04-23T11:56:16;4.35;;;1.40;;
31224;SDS011;17847;31.524;74.366;2023-04-23T11:58:47;3.83;;;1.60;;
31224;SDS011;17847;31.524;74.366;2023-04-23T12:04:20;5.93;;;1.65;;
31224;SDS011;17847;31.524;74.366;2023-04-23T12:06:50;8.48;;;1.88;;
31224;SDS011;17847;31.524;74.366;2023-04-23T12:09:22;5.45;;;1.80;;
31224;SDS011;17847;31.524;74.366;2023-04-23T12:11:54;10.32;;;2.47;;
31224;SDS011;17847;31.524;74.366;2023-04-23T12:14:28;9.73;;;1.75;;
31224;SDS011;17847;31.524;74.366;2023-04-23T12:17:01;8.55;;;2.20;;
31224;SDS011;17847;31.524;74.366;2023-04-23T12:19:37;4.72;;;1.60;;
31224;SDS011;17847;31.524;74.366;2023-04-23T12:22:08;9.90;;;1.50;;
31224;SDS011;17847;31.524;74.366;2023-04-23T12:24:47;8.75;;;1.52;;
31224;SDS011;17847;31.524;74.366;2023-04-23T12:27:18;8.98;;;1.52;;
31224;SDS011;17847;31.524;74.366;2023-04-23T12:29:58;3.97;;;1.50;;
31224;SDS011;17847;31.524;74.366;2023-04-23T12:32:31;5.03;;;1.30;;
31224;SDS011;17847;31.524;74.366;2023-04-23T12:35:01;6.57;;;1.50;;
31224;SDS011;17847;31.524;74.366;2023-04-23T12:37:35;6.47;;;1.42;;
31224;SDS011;17847;31.524;74.366;2023-04-23T12:40:36;6.15;;;1.52;;
31224;SDS011;17847;31.524;74.366;2023-04-23T12:43:05;10.27;;;1.65;;
31224;SDS011;17847;31.524;74.366;2023-04-23T12:45:37;13.90;;;1.98;;
31224;SDS011;17847;31.524;74.366;2023-04-23T12:48:16;2.92;;;1.70;;
31224;SDS011;17847;31.524;74.366;2023-04-23T12:50:47;5.68;;;1.80;;
31224;SDS011;17847;31.524;74.366;2023-04-23T12:53:17;7.22;;;1.85;;
31224;SDS011;17847;31.524;74.366;2023-04-23T12:55:46;8.50;;;1.50;;
31224;SDS011;17847;31.524;74.366;2023-04-23T12:58:17;5.65;;;1.65;;
31224;SDS011;17847;31.524;74.366;2023-04-23T13:00:46;8.15;;;2.05;;
31224;SDS011;17847;31.524;74.366;2023-04-23T13:03:15;7.85;;;1.85;;
31224;SDS011;17847;31.524;74.366;2023-04-23T13:05:46;11.73;;;2.20;;
31224;SDS011;17847;31.524;74.366;2023-04-23T13:08:16;7.22;;;2.20;;
31224;SDS011;17847;31.524;74.366;2023-04-23T13:10:46;6.97;;;1.85;;
31224;SDS011;17847;31.524;74.366;2023-04-23T13:13:17;4.60;;;1.88;;
31224;SDS011;17847;31.524;74.366;2023-04-23T13:15:46;4.53;;;1.73;;
31224;SDS011;17847;31.524;74.366;2023-04-23T13:18:16;8.68;;;2.03;;
31224;SDS011;17847;31.524;74.366;2023-04-23T13:20:45;7.90;;;1.98;;
31224;SDS011;17847;31.524;74.366;2023-04-23T13:23:14;6.00;;;1.85;;
31224;SDS011;17847;31.524;74.366;2023-04-23T13:25:44;9.07;;;2.03;;
31224;SDS011;17847;31.524;74.366;2023-04-23T13:28:13;11.23;;;1.90;;
31224;SDS011;17847;31.524;74.366;2023-04-23T13:30:43;6.10;;;1.90;;
31224;SDS011;17847;31.524;74.366;2023-04-23T13:33:13;5.60;;;1.92;;
31224;SDS011;17847;31.524;74.366;2023-04-23T13:35:42;11.98;;;2.10;;
31224;SDS011;17847;31.524;74.366;2023-04-23T13:38:12;9.43;;;2.40;;
31224;SDS011;17847;31.524;74.366;2023-04-23T13:40:42;9.80;;;2.25;;
31224;SDS011;17847;31.524;74.366;2023-04-23T13:43:11;10.25;;;2.15;;
31224;SDS011;17847;31.524;74.366;2023-04-23T13:45:40;8.57;;;2.17;;
31224;SDS011;17847;31.524;74.366;2023-04-23T13:48:10;3.88;;;2.05;;
31224;SDS011;17847;31.524;74.366;2023-04-23T13:50:39;6.20;;;2.20;;
31224;SDS011;17847;31.524;74.366;2023-04-23T13:53:10;5.68;;;2.20;;
31224;SDS011;17847;31.524;74.366;2023-04-23T13:55:40;9.90;;;2.35;;
31224;SDS011;17847;31.524;74.366;2023-04-23T13:58:10;16.13;;;2.20;;
31224;SDS011;17847;31.524;74.366;2023-04-23T14:00:40;15.02;;;2.58;;
31224;SDS011;17847;31.524;74.366;2023-04-23T14:03:10;6.78;;;2.42;;
31224;SDS011;17847;31.524;74.366;2023-04-23T14:05:40;7.70;;;2.30;;
31224;SDS011;17847;31.524;74.366;2023-04-23T14:08:09;8.20;;;2.78;;
31224;SDS011;17847;31.524;74.366;2023-04-23T14:10:40;7.40;;;2.30;;
31224;SDS011;17847;31.524;74.366;2023-04-23T14:13:10;21.17;;;3.88;;
31224;SDS011;17847;31.524;74.366;2023-04-23T14:15:40;7.13;;;2.25;;
31224;SDS011;17847;31.524;74.366;2023-04-23T14:18:11;7.18;;;3.17;;
31224;SDS011;17847;31.524;74.366;2023-04-23T14:20:41;12.18;;;3.83;;
31224;SDS011;17847;31.524;74.366;2023-04-23T14:23:35;23.95;;;3.42;;
31224;SDS011;17847;31.524;74.366;2023-04-23T14:29:28;8.15;;;3.72;;
31224;SDS011;17847;31.524;74.366;2023-04-23T14:32:02;12.43;;;4.18;;
31224;SDS011;17847;31.524;74.366;2023-04-23T14:34:32;10.63;;;4.68;;
31224;SDS011;17847;31.524;74.366;2023-04-23T14:37:04;10.18;;;4.88;;
31224;SDS011;17847;31.524;74.366;2023-04-23T14:39:34;11.93;;;5.13;;
31224;SDS011;17847;31.524;74.366;2023-04-23T14:42:03;16.55;;;5.07;;
31224;SDS011;17847;31.524;74.366;2023-04-23T14:44:33;12.02;;;4.72;;
31224;SDS011;17847;31.524;74.366;2023-04-23T14:47:02;10.45;;;4.97;;
31224;SDS011;17847;31.524;74.366;2023-04-23T14:49:32;7.70;;;5.05;;
31224;SDS011;17847;31.524;74.366;2023-04-23T14:52:01;15.77;;;5.10;;
31224;SDS011;17847;31.524;74.366;2023-04-23T14:54:31;17.88;;;5.07;;
31224;SDS011;17847;31.524;74.366;2023-04-23T14:57:01;10.88;;;4.55;;
31224;SDS011;17847;31.524;74.366;2023-04-23T14:59:30;20.10;;;5.00;;
31224;SDS011;17847;31.524;74.366;2023-04-23T15:01:59;12.98;;;4.28;;
31224;SDS011;17847;31.524;74.366;2023-04-23T15:04:29;17.95;;;4.80;;
31224;SDS011;17847;31.524;74.366;2023-04-23T15:06:59;21.27;;;4.85;;
31224;SDS011;17847;31.524;74.366;2023-04-23T15:09:28;17.30;;;5.93;;
31224;SDS011;17847;31.524;74.366;2023-04-23T15:11:58;14.45;;;5.07;;
31224;SDS011;17847;31.524;74.366;2023-04-23T15:14:31;12.32;;;3.95;;
31224;SDS011;17847;31.524;74.366;2023-04-23T15:17:05;14.60;;;4.07;;
31224;SDS011;17847;31.524;74.366;2023-04-23T15:19:35;11.30;;;4.60;;